Carroll, Iowa
Current Conditions -  °F | °C
As of 2:15 AM on Saturday 25 Oct 2014 (Local Time) from KCIN Reporting Station
Clear Clear  
Wind Chill: 10°   Ceiling: Unl
Heat Index: 10°   Visibility: 10mi
Dew Point:   Wind: 7mph
Humidity: 87%   Direction: 300°WNW
Pressure: 30.01"   Gusts: NA
Location:  42.07°N, 94.87°W
Report Text: KCIN 250715Z AUTO 30006KT 10SM CLR 10/08 A3001 RMK AO2
Loading
Personal Weather Stations






























Interactive Weather Map New forecast layout! Learn more

10-Day Weather Forecast

Advertisements
Track Severe Weather on mobile